KODX

Evelyn Sharp Field Airport

Ord, Nebraska, USA
METAR KODX 241453Z AUTO 32005KT 10SM CLR 20/16 A2987 RMK AO2 SLP106 T02000161 55002 $
Observed Flight Rules
Jun-24 @ 14:53 UTC (14 minutes ago) Visual Flight Rules
Wind Visibility Clouds
320° at 5 knots 10 miles
  • Clear skies
Temperatures Readings
Current 20°C / 68°F
Dewpoint 16°C / 61°F
Humidity 78%
Altimeter 29.87" Hg
Pressure 1010.6 hPa
Elevation 631
METAR KODX 241453Z AUTO 32005KT 10SM CLR 20/16 A2987 RMK AO2 SLP106 T02000161 55002 $
Observed Flight Rules
Jun-24 @ 14:53 UTC
(14 minutes ago)
VFR
Wind Visibility
320° at 5 knots 10 miles
Clouds
  • Clear skies
Temperature Dewpoint
20°C / 68°F 16°C / 61°F
Humidity Altimeter Pressure
78% 29.87" Hg 1010.6 hPa